sensor_id;sensor_type;location;lat;lon;timestamp;P1;durP1;ratioP1;P2;durP2;ratioP2
9445;SDS011;4761;49.490;10.908;2024-01-30T00:01:02;6.67;;;4.70;;
9445;SDS011;4761;49.490;10.908;2024-01-30T00:03:27;7.20;;;5.00;;
9445;SDS011;4761;49.490;10.908;2024-01-30T00:05:54;4.73;;;4.23;;
9445;SDS011;4761;49.490;10.908;2024-01-30T00:08:20;5.83;;;4.97;;
9445;SDS011;4761;49.490;10.908;2024-01-30T00:10:45;5.10;;;4.40;;
9445;SDS011;4761;49.490;10.908;2024-01-30T00:13:11;5.53;;;4.53;;
9445;SDS011;4761;49.490;10.908;2024-01-30T00:15:38;5.93;;;4.20;;
9445;SDS011;4761;49.490;10.908;2024-01-30T00:18:04;4.87;;;4.37;;
9445;SDS011;4761;49.490;10.908;2024-01-30T00:20:30;6.07;;;4.33;;
9445;SDS011;4761;49.490;10.908;2024-01-30T00:22:55;5.50;;;4.27;;
9445;SDS011;4761;49.490;10.908;2024-01-30T00:25:21;5.47;;;4.20;;
9445;SDS011;4761;49.490;10.908;2024-01-30T00:27:46;5.37;;;4.17;;
9445;SDS011;4761;49.490;10.908;2024-01-30T00:30:12;4.77;;;4.10;;
9445;SDS011;4761;49.490;10.908;2024-01-30T00:32:37;6.33;;;4.37;;
9445;SDS011;4761;49.490;10.908;2024-01-30T00:35:03;5.17;;;4.13;;
9445;SDS011;4761;49.490;10.908;2024-01-30T00:37:29;5.63;;;3.87;;
9445;SDS011;4761;49.490;10.908;2024-01-30T00:39:56;4.50;;;4.00;;
9445;SDS011;4761;49.490;10.908;2024-01-30T00:42:21;4.63;;;4.10;;
9445;SDS011;4761;49.490;10.908;2024-01-30T00:44:48;6.17;;;4.30;;
9445;SDS011;4761;49.490;10.908;2024-01-30T00:47:14;4.47;;;3.73;;
9445;SDS011;4761;49.490;10.908;2024-01-30T00:49:39;5.73;;;4.33;;
9445;SDS011;4761;49.490;10.908;2024-01-30T00:52:05;5.33;;;4.10;;
9445;SDS011;4761;49.490;10.908;2024-01-30T00:54:31;7.10;;;4.43;;
9445;SDS011;4761;49.490;10.908;2024-01-30T00:56:56;4.63;;;4.10;;
9445;SDS011;4761;49.490;10.908;2024-01-30T00:59:22;5.27;;;4.23;;
9445;SDS011;4761;49.490;10.908;2024-01-30T01:01:47;4.63;;;3.70;;
9445;SDS011;4761;49.490;10.908;2024-01-30T01:04:13;4.43;;;3.70;;
9445;SDS011;4761;49.490;10.908;2024-01-30T01:06:39;5.40;;;3.97;;
9445;SDS011;4761;49.490;10.908;2024-01-30T01:09:07;4.57;;;3.87;;
9445;SDS011;4761;49.490;10.908;2024-01-30T01:11:33;4.93;;;4.27;;
9445;SDS011;4761;49.490;10.908;2024-01-30T01:13:58;5.67;;;3.97;;
9445;SDS011;4761;49.490;10.908;2024-01-30T01:16:24;5.00;;;3.80;;
9445;SDS011;4761;49.490;10.908;2024-01-30T01:18:49;4.67;;;3.60;;
9445;SDS011;4761;49.490;10.908;2024-01-30T01:21:15;5.57;;;4.23;;
9445;SDS011;4761;49.490;10.908;2024-01-30T01:23:40;5.30;;;3.87;;
9445;SDS011;4761;49.490;10.908;2024-01-30T01:26:07;4.50;;;3.93;;
9445;SDS011;4761;49.490;10.908;2024-01-30T01:28:34;4.67;;;3.63;;
9445;SDS011;4761;49.490;10.908;2024-01-30T01:31:00;4.03;;;3.63;;
9445;SDS011;4761;49.490;10.908;2024-01-30T01:33:30;5.27;;;3.80;;
9445;SDS011;4761;49.490;10.908;2024-01-30T01:35:57;4.67;;;3.90;;
9445;SDS011;4761;49.490;10.908;2024-01-30T01:38:23;4.13;;;3.70;;
9445;SDS011;4761;49.490;10.908;2024-01-30T01:40:49;4.00;;;3.60;;
9445;SDS011;4761;49.490;10.908;2024-01-30T01:43:14;5.63;;;3.90;;
9445;SDS011;4761;49.490;10.908;2024-01-30T01:45:40;5.43;;;4.20;;
9445;SDS011;4761;49.490;10.908;2024-01-30T01:48:05;5.13;;;3.77;;
9445;SDS011;4761;49.490;10.908;2024-01-30T01:50:33;4.93;;;3.70;;
9445;SDS011;4761;49.490;10.908;2024-01-30T01:52:58;5.03;;;3.70;;
9445;SDS011;4761;49.490;10.908;2024-01-30T01:55:24;5.13;;;4.00;;
9445;SDS011;4761;49.490;10.908;2024-01-30T01:57:52;5.70;;;4.00;;
9445;SDS011;4761;49.490;10.908;2024-01-30T02:00:18;5.00;;;3.97;;
9445;SDS011;4761;49.490;10.908;2024-01-30T02:02:45;5.40;;;3.80;;
9445;SDS011;4761;49.490;10.908;2024-01-30T02:05:11;4.50;;;3.80;;
9445;SDS011;4761;49.490;10.908;2024-01-30T02:07:37;5.47;;;3.67;;
9445;SDS011;4761;49.490;10.908;2024-01-30T02:10:03;5.20;;;4.20;;
9445;SDS011;4761;49.490;10.908;2024-01-30T02:12:29;6.07;;;4.13;;
9445;SDS011;4761;49.490;10.908;2024-01-30T02:14:55;4.43;;;3.73;;
9445;SDS011;4761;49.490;10.908;2024-01-30T02:17:20;5.43;;;3.70;;
9445;SDS011;4761;49.490;10.908;2024-01-30T02:19:48;5.63;;;4.40;;
9445;SDS011;4761;49.490;10.908;2024-01-30T02:22:13;4.40;;;3.83;;
9445;SDS011;4761;49.490;10.908;2024-01-30T02:24:39;4.97;;;3.97;;
9445;SDS011;4761;49.490;10.908;2024-01-30T02:27:05;6.03;;;4.17;;
9445;SDS011;4761;49.490;10.908;2024-01-30T02:29:30;5.57;;;4.00;;
9445;SDS011;4761;49.490;10.908;2024-01-30T02:31:56;4.10;;;3.70;;
9445;SDS011;4761;49.490;10.908;2024-01-30T02:34:21;4.97;;;4.03;;
9445;SDS011;4761;49.490;10.908;2024-01-30T02:36:47;4.70;;;4.20;;
9445;SDS011;4761;49.490;10.908;2024-01-30T02:39:12;5.17;;;4.03;;
9445;SDS011;4761;49.490;10.908;2024-01-30T02:41:38;4.43;;;4.03;;
9445;SDS011;4761;49.490;10.908;2024-01-30T02:44:03;5.63;;;4.00;;
9445;SDS011;4761;49.490;10.908;2024-01-30T02:46:29;4.67;;;3.63;;
9445;SDS011;4761;49.490;10.908;2024-01-30T02:48:55;4.90;;;4.00;;
9445;SDS011;4761;49.490;10.908;2024-01-30T02:51:20;5.37;;;3.80;;
9445;SDS011;4761;49.490;10.908;2024-01-30T02:53:46;6.43;;;4.20;;
9445;SDS011;4761;49.490;10.908;2024-01-30T02:56:11;5.67;;;4.10;;
9445;SDS011;4761;49.490;10.908;2024-01-30T02:58:38;4.80;;;4.30;;
9445;SDS011;4761;49.490;10.908;2024-01-30T03:01:04;6.07;;;4.20;;
9445;SDS011;4761;49.490;10.908;2024-01-30T03:03:30;4.50;;;3.87;;
9445;SDS011;4761;49.490;10.908;2024-01-30T03:05:56;5.07;;;4.20;;
9445;SDS011;4761;49.490;10.908;2024-01-30T03:08:21;4.73;;;4.07;;
9445;SDS011;4761;49.490;10.908;2024-01-30T03:10:47;4.33;;;3.87;;
9445;SDS011;4761;49.490;10.908;2024-01-30T03:13:12;4.63;;;3.73;;
9445;SDS011;4761;49.490;10.908;2024-01-30T03:15:38;5.30;;;4.03;;
9445;SDS011;4761;49.490;10.908;2024-01-30T03:18:03;4.27;;;3.87;;
9445;SDS011;4761;49.490;10.908;2024-01-30T03:20:29;5.63;;;4.10;;
9445;SDS011;4761;49.490;10.908;2024-01-30T03:22:55;6.07;;;4.33;;
9445;SDS011;4761;49.490;10.908;2024-01-30T03:25:21;5.27;;;3.80;;
9445;SDS011;4761;49.490;10.908;2024-01-30T03:27:46;5.03;;;3.90;;
9445;SDS011;4761;49.490;10.908;2024-01-30T03:30:12;4.47;;;3.73;;
9445;SDS011;4761;49.490;10.908;2024-01-30T03:32:38;4.53;;;3.83;;
9445;SDS011;4761;49.490;10.908;2024-01-30T03:35:03;4.63;;;3.90;;
9445;SDS011;4761;49.490;10.908;2024-01-30T03:37:29;4.77;;;3.70;;
9445;SDS011;4761;49.490;10.908;2024-01-30T03:39:55;5.30;;;4.03;;
9445;SDS011;4761;49.490;10.908;2024-01-30T03:42:20;5.67;;;3.90;;
9445;SDS011;4761;49.490;10.908;2024-01-30T03:44:47;5.47;;;4.30;;
9445;SDS011;4761;49.490;10.908;2024-01-30T03:47:13;4.73;;;3.77;;
9445;SDS011;4761;49.490;10.908;2024-01-30T03:49:38;5.53;;;4.13;;
9445;SDS011;4761;49.490;10.908;2024-01-30T03:52:04;5.65;;;4.47;;
9445;SDS011;4761;49.490;10.908;2024-01-30T03:54:30;5.13;;;4.50;;
9445;SDS011;4761;49.490;10.908;2024-01-30T03:56:56;5.83;;;4.43;;
9445;SDS011;4761;49.490;10.908;2024-01-30T03:59:21;5.17;;;4.50;;
9445;SDS011;4761;49.490;10.908;2024-01-30T04:01:49;5.83;;;4.47;;
9445;SDS011;4761;49.490;10.908;2024-01-30T04:04:16;5.57;;;4.57;;
9445;SDS011;4761;49.490;10.908;2024-01-30T04:06:42;5.40;;;4.60;;
9445;SDS011;4761;49.490;10.908;2024-01-30T04:09:08;5.13;;;4.20;;
9445;SDS011;4761;49.490;10.908;2024-01-30T04:11:33;6.20;;;4.33;;
9445;SDS011;4761;49.490;10.908;2024-01-30T04:13:59;4.90;;;3.90;;
9445;SDS011;4761;49.490;10.908;2024-01-30T04:16:24;4.90;;;3.97;;
9445;SDS011;4761;49.490;10.908;2024-01-30T04:18:50;5.10;;;3.90;;
9445;SDS011;4761;49.490;10.908;2024-01-30T04:21:16;5.07;;;4.20;;
9445;SDS011;4761;49.490;10.908;2024-01-30T04:23:42;4.83;;;4.00;;
9445;SDS011;4761;49.490;10.908;2024-01-30T04:26:07;5.50;;;4.40;;
9445;SDS011;4761;49.490;10.908;2024-01-30T04:28:33;5.90;;;4.30;;
9445;SDS011;4761;49.490;10.908;2024-01-30T04:30:58;4.60;;;4.00;;
9445;SDS011;4761;49.490;10.908;2024-01-30T04:33:24;5.40;;;4.10;;
9445;SDS011;4761;49.490;10.908;2024-01-30T04:35:49;5.47;;;4.60;;
9445;SDS011;4761;49.490;10.908;2024-01-30T04:38:15;5.33;;;4.23;;
9445;SDS011;4761;49.490;10.908;2024-01-30T04:40:41;4.50;;;3.90;;
9445;SDS011;4761;49.490;10.908;2024-01-30T04:43:06;5.10;;;4.10;;
9445;SDS011;4761;49.490;10.908;2024-01-30T04:45:32;6.60;;;4.30;;
9445;SDS011;4761;49.490;10.908;2024-01-30T04:47:57;4.57;;;4.10;;
9445;SDS011;4761;49.490;10.908;2024-01-30T04:50:23;4.67;;;3.80;;
9445;SDS011;4761;49.490;10.908;2024-01-30T04:52:48;4.73;;;4.03;;
9445;SDS011;4761;49.490;10.908;2024-01-30T04:55:14;4.20;;;3.80;;
9445;SDS011;4761;49.490;10.908;2024-01-30T04:57:39;6.57;;;4.20;;
9445;SDS011;4761;49.490;10.908;2024-01-30T05:00:05;6.13;;;4.30;;
9445;SDS011;4761;49.490;10.908;2024-01-30T05:02:31;5.70;;;4.03;;
9445;SDS011;4761;49.490;10.908;2024-01-30T05:04:57;6.30;;;4.40;;
9445;SDS011;4761;49.490;10.908;2024-01-30T05:07:24;5.57;;;4.10;;
9445;SDS011;4761;49.490;10.908;2024-01-30T05:09:50;6.90;;;4.50;;
9445;SDS011;4761;49.490;10.908;2024-01-30T05:12:15;7.10;;;4.93;;
9445;SDS011;4761;49.490;10.908;2024-01-30T05:14:41;5.13;;;4.20;;
9445;SDS011;4761;49.490;10.908;2024-01-30T05:17:06;5.47;;;4.20;;
9445;SDS011;4761;49.490;10.908;2024-01-30T05:19:34;7.63;;;4.37;;
9445;SDS011;4761;49.490;10.908;2024-01-30T05:21:59;6.70;;;4.70;;
9445;SDS011;4761;49.490;10.908;2024-01-30T05:24:25;5.53;;;4.27;;
9445;SDS011;4761;49.490;10.908;2024-01-30T05:26:51;5.10;;;4.23;;
9445;SDS011;4761;49.490;10.908;2024-01-30T05:29:16;5.57;;;4.10;;
9445;SDS011;4761;49.490;10.908;2024-01-30T05:31:42;6.30;;;4.53;;
9445;SDS011;4761;49.490;10.908;2024-01-30T05:34:07;4.70;;;4.10;;
9445;SDS011;4761;49.490;10.908;2024-01-30T05:36:34;5.20;;;4.23;;
9445;SDS011;4761;49.490;10.908;2024-01-30T05:38:59;7.07;;;4.20;;
9445;SDS011;4761;49.490;10.908;2024-01-30T05:41:25;5.27;;;4.13;;
9445;SDS011;4761;49.490;10.908;2024-01-30T05:43:54;5.50;;;3.70;;
9445;SDS011;4761;49.490;10.908;2024-01-30T05:46:19;6.07;;;4.43;;
9445;SDS011;4761;49.490;10.908;2024-01-30T05:48:45;5.93;;;4.37;;
9445;SDS011;4761;49.490;10.908;2024-01-30T05:51:10;5.93;;;4.53;;
9445;SDS011;4761;49.490;10.908;2024-01-30T05:53:36;5.50;;;4.23;;
9445;SDS011;4761;49.490;10.908;2024-01-30T05:56:02;5.50;;;4.57;;
9445;SDS011;4761;49.490;10.908;2024-01-30T05:58:28;6.13;;;4.43;;
9445;SDS011;4761;49.490;10.908;2024-01-30T06:00:53;5.50;;;4.53;;
9445;SDS011;4761;49.490;10.908;2024-01-30T06:03:19;4.30;;;3.90;;
9445;SDS011;4761;49.490;10.908;2024-01-30T06:05:44;5.03;;;4.47;;
9445;SDS011;4761;49.490;10.908;2024-01-30T06:08:10;5.80;;;4.70;;
9445;SDS011;4761;49.490;10.908;2024-01-30T06:10:35;6.05;;;4.60;;
9445;SDS011;4761;49.490;10.908;2024-01-30T06:13:01;6.50;;;4.73;;
9445;SDS011;4761;49.490;10.908;2024-01-30T06:15:27;5.30;;;4.50;;
9445;SDS011;4761;49.490;10.908;2024-01-30T06:17:54;7.27;;;5.00;;
9445;SDS011;4761;49.490;10.908;2024-01-30T06:20:20;9.05;;;6.15;;
9445;SDS011;4761;49.490;10.908;2024-01-30T06:22:46;9.43;;;6.17;;
9445;SDS011;4761;49.490;10.908;2024-01-30T06:25:11;9.47;;;6.20;;
9445;SDS011;4761;49.490;10.908;2024-01-30T06:27:37;7.77;;;5.80;;
9445;SDS011;4761;49.490;10.908;2024-01-30T06:30:03;8.73;;;6.13;;
9445;SDS011;4761;49.490;10.908;2024-01-30T06:32:29;7.90;;;5.60;;
9445;SDS011;4761;49.490;10.908;2024-01-30T06:34:59;9.33;;;6.20;;
9445;SDS011;4761;49.490;10.908;2024-01-30T06:37:27;8.00;;;5.93;;
9445;SDS011;4761;49.490;10.908;2024-01-30T06:39:53;8.10;;;5.67;;
9445;SDS011;4761;49.490;10.908;2024-01-30T06:42:19;8.83;;;5.67;;
9445;SDS011;4761;49.490;10.908;2024-01-30T06:44:44;11.40;;;6.23;;
9445;SDS011;4761;49.490;10.908;2024-01-30T06:47:10;8.73;;;5.63;;
9445;SDS011;4761;49.490;10.908;2024-01-30T06:49:36;7.67;;;5.30;;
9445;SDS011;4761;49.490;10.908;2024-01-30T06:52:07;7.00;;;5.23;;
9445;SDS011;4761;49.490;10.908;2024-01-30T06:54:33;8.30;;;5.75;;
9445;SDS011;4761;49.490;10.908;2024-01-30T06:56:59;7.10;;;5.10;;
9445;SDS011;4761;49.490;10.908;2024-01-30T06:59:25;6.80;;;5.20;;
9445;SDS011;4761;49.490;10.908;2024-01-30T07:01:50;7.67;;;5.20;;
9445;SDS011;4761;49.490;10.908;2024-01-30T07:04:16;7.43;;;5.50;;
9445;SDS011;4761;49.490;10.908;2024-01-30T07:06:43;6.40;;;5.13;;
9445;SDS011;4761;49.490;10.908;2024-01-30T07:09:08;6.70;;;5.10;;
9445;SDS011;4761;49.490;10.908;2024-01-30T07:11:34;7.57;;;5.00;;
9445;SDS011;4761;49.490;10.908;2024-01-30T07:14:00;5.87;;;4.87;;
9445;SDS011;4761;49.490;10.908;2024-01-30T07:16:28;6.32;;;4.90;;
9445;SDS011;4761;49.490;10.908;2024-01-30T07:18:54;6.60;;;4.70;;
9445;SDS011;4761;49.490;10.908;2024-01-30T07:21:19;7.63;;;5.30;;
9445;SDS011;4761;49.490;10.908;2024-01-30T07:23:46;6.63;;;5.07;;
9445;SDS011;4761;49.490;10.908;2024-01-30T07:26:12;5.73;;;5.00;;
9445;SDS011;4761;49.490;10.908;2024-01-30T07:28:37;6.13;;;5.03;;
9445;SDS011;4761;49.490;10.908;2024-01-30T07:31:03;5.60;;;4.80;;
9445;SDS011;4761;49.490;10.908;2024-01-30T07:33:29;5.63;;;4.80;;
9445;SDS011;4761;49.490;10.908;2024-01-30T07:35:54;6.88;;;5.35;;
9445;SDS011;4761;49.490;10.908;2024-01-30T07:38:20;5.70;;;4.80;;
9445;SDS011;4761;49.490;10.908;2024-01-30T07:40:45;6.63;;;4.70;;
9445;SDS011;4761;49.490;10.908;2024-01-30T07:43:11;5.13;;;4.40;;
9445;SDS011;4761;49.490;10.908;2024-01-30T07:45:36;5.47;;;4.50;;
9445;SDS011;4761;49.490;10.908;2024-01-30T07:48:03;6.03;;;4.73;;
9445;SDS011;4761;49.490;10.908;2024-01-30T07:50:30;7.43;;;4.80;;
9445;SDS011;4761;49.490;10.908;2024-01-30T07:52:56;5.77;;;4.47;;
9445;SDS011;4761;49.490;10.908;2024-01-30T07:55:21;5.20;;;4.17;;
9445;SDS011;4761;49.490;10.908;2024-01-30T07:57:53;8.80;;;4.57;;
9445;SDS011;4761;49.490;10.908;2024-01-30T08:00:20;6.00;;;4.87;;
9445;SDS011;4761;49.490;10.908;2024-01-30T08:02:46;5.97;;;4.90;;
9445;SDS011;4761;49.490;10.908;2024-01-30T08:05:11;5.53;;;4.77;;
9445;SDS011;4761;49.490;10.908;2024-01-30T08:07:39;5.10;;;4.47;;
9445;SDS011;4761;49.490;10.908;2024-01-30T08:10:05;5.70;;;4.83;;
9445;SDS011;4761;49.490;10.908;2024-01-30T08:12:30;6.70;;;4.90;;
9445;SDS011;4761;49.490;10.908;2024-01-30T08:14:56;6.97;;;5.43;;
9445;SDS011;4761;49.490;10.908;2024-01-30T08:17:22;5.80;;;5.07;;
9445;SDS011;4761;49.490;10.908;2024-01-30T08:19:47;5.77;;;4.97;;
9445;SDS011;4761;49.490;10.908;2024-01-30T08:22:13;6.47;;;4.70;;
9445;SDS011;4761;49.490;10.908;2024-01-30T08:24:38;6.30;;;4.73;;
9445;SDS011;4761;49.490;10.908;2024-01-30T08:27:06;6.00;;;4.73;;
9445;SDS011;4761;49.490;10.908;2024-01-30T08:29:34;6.20;;;5.27;;
9445;SDS011;4761;49.490;10.908;2024-01-30T08:32:00;5.97;;;4.73;;
9445;SDS011;4761;49.490;10.908;2024-01-30T08:34:25;5.60;;;5.00;;
9445;SDS011;4761;49.490;10.908;2024-01-30T08:36:51;5.60;;;4.90;;
9445;SDS011;4761;49.490;10.908;2024-01-30T08:39:16;6.43;;;5.40;;
9445;SDS011;4761;49.490;10.908;2024-01-30T08:41:42;6.13;;;5.50;;
9445;SDS011;4761;49.490;10.908;2024-01-30T08:44:07;6.13;;;5.13;;
9445;SDS011;4761;49.490;10.908;2024-01-30T08:46:33;7.00;;;5.57;;
9445;SDS011;4761;49.490;10.908;2024-01-30T08:48:59;6.63;;;5.20;;
9445;SDS011;4761;49.490;10.908;2024-01-30T08:51:24;6.33;;;5.00;;
9445;SDS011;4761;49.490;10.908;2024-01-30T08:53:50;5.60;;;5.00;;
9445;SDS011;4761;49.490;10.908;2024-01-30T08:56:17;6.37;;;5.20;;
9445;SDS011;4761;49.490;10.908;2024-01-30T08:58:43;5.57;;;4.93;;
9445;SDS011;4761;49.490;10.908;2024-01-30T09:01:09;6.60;;;5.37;;
9445;SDS011;4761;49.490;10.908;2024-01-30T09:03:34;6.20;;;5.03;;
9445;SDS011;4761;49.490;10.908;2024-01-30T09:06:00;10.30;;;6.00;;
9445;SDS011;4761;49.490;10.908;2024-01-30T09:08:25;8.90;;;5.77;;
9445;SDS011;4761;49.490;10.908;2024-01-30T09:10:51;6.07;;;5.27;;
9445;SDS011;4761;49.490;10.908;2024-01-30T09:13:16;7.13;;;5.50;;
9445;SDS011;4761;49.490;10.908;2024-01-30T09:15:42;5.77;;;5.23;;
9445;SDS011;4761;49.490;10.908;2024-01-30T09:18:07;6.73;;;4.87;;
9445;SDS011;4761;49.490;10.908;2024-01-30T09:20:33;6.03;;;5.43;;
9445;SDS011;4761;49.490;10.908;2024-01-30T09:22:58;5.70;;;5.10;;
9445;SDS011;4761;49.490;10.908;2024-01-30T09:25:24;6.30;;;5.33;;
9445;SDS011;4761;49.490;10.908;2024-01-30T09:27:49;6.73;;;5.10;;
9445;SDS011;4761;49.490;10.908;2024-01-30T09:30:15;6.10;;;5.20;;
9445;SDS011;4761;49.490;10.908;2024-01-30T09:32:40;6.97;;;5.47;;
9445;SDS011;4761;49.490;10.908;2024-01-30T09:35:06;6.27;;;5.33;;
9445;SDS011;4761;49.490;10.908;2024-01-30T09:37:32;5.77;;;4.90;;
9445;SDS011;4761;49.490;10.908;2024-01-30T09:39:58;6.50;;;5.30;;
9445;SDS011;4761;49.490;10.908;2024-01-30T09:42:33;5.87;;;5.27;;
9445;SDS011;4761;49.490;10.908;2024-01-30T09:45:02;6.03;;;5.00;;
9445;SDS011;4761;49.490;10.908;2024-01-30T09:47:32;6.83;;;5.30;;
9445;SDS011;4761;49.490;10.908;2024-01-30T09:50:06;5.93;;;5.27;;
9445;SDS011;4761;49.490;10.908;2024-01-30T09:52:33;6.70;;;5.50;;
9445;SDS011;4761;49.490;10.908;2024-01-30T09:54:59;6.47;;;5.77;;
9445;SDS011;4761;49.490;10.908;2024-01-30T09:57:25;5.80;;;5.20;;
9445;SDS011;4761;49.490;10.908;2024-01-30T09:59:51;5.97;;;5.33;;
9445;SDS011;4761;49.490;10.908;2024-01-30T10:02:19;6.40;;;5.20;;
9445;SDS011;4761;49.490;10.908;2024-01-30T10:04:47;6.47;;;5.50;;
9445;SDS011;4761;49.490;10.908;2024-01-30T10:07:13;6.53;;;5.10;;
9445;SDS011;4761;49.490;10.908;2024-01-30T10:09:40;6.75;;;5.57;;
9445;SDS011;4761;49.490;10.908;2024-01-30T10:12:05;7.00;;;4.97;;
9445;SDS011;4761;49.490;10.908;2024-01-30T10:14:32;7.03;;;5.20;;
9445;SDS011;4761;49.490;10.908;2024-01-30T10:16:58;7.07;;;5.80;;
9445;SDS011;4761;49.490;10.908;2024-01-30T10:19:24;7.10;;;5.60;;
9445;SDS011;4761;49.490;10.908;2024-01-30T10:21:49;6.20;;;5.20;;
9445;SDS011;4761;49.490;10.908;2024-01-30T10:24:15;6.70;;;5.27;;
9445;SDS011;4761;49.490;10.908;2024-01-30T10:26:43;6.83;;;5.50;;
9445;SDS011;4761;49.490;10.908;2024-01-30T10:29:09;6.30;;;5.00;;
9445;SDS011;4761;49.490;10.908;2024-01-30T10:31:34;7.13;;;5.43;;
9445;SDS011;4761;49.490;10.908;2024-01-30T10:34:00;6.90;;;5.10;;
9445;SDS011;4761;49.490;10.908;2024-01-30T10:36:27;6.37;;;5.23;;
9445;SDS011;4761;49.490;10.908;2024-01-30T10:38:55;6.63;;;4.73;;
9445;SDS011;4761;49.490;10.908;2024-01-30T10:41:25;6.60;;;5.60;;
9445;SDS011;4761;49.490;10.908;2024-01-30T10:43:57;8.47;;;5.30;;
9445;SDS011;4761;49.490;10.908;2024-01-30T10:46:43;7.17;;;5.27;;
9445;SDS011;4761;49.490;10.908;2024-01-30T10:49:13;7.17;;;4.80;;
9445;SDS011;4761;49.490;10.908;2024-01-30T10:51:40;6.37;;;5.23;;
9445;SDS011;4761;49.490;10.908;2024-01-30T10:54:07;7.07;;;5.03;;
9445;SDS011;4761;49.490;10.908;2024-01-30T10:56:34;6.30;;;4.70;;
9445;SDS011;4761;49.490;10.908;2024-01-30T10:59:00;6.63;;;5.05;;
9445;SDS011;4761;49.490;10.908;2024-01-30T11:01:26;6.60;;;5.37;;
9445;SDS011;4761;49.490;10.908;2024-01-30T11:03:53;6.37;;;5.20;;
9445;SDS011;4761;49.490;10.908;2024-01-30T11:06:24;5.60;;;4.93;;
9445;SDS011;4761;49.490;10.908;2024-01-30T11:09:00;7.10;;;5.25;;
9445;SDS011;4761;49.490;10.908;2024-01-30T11:11:28;6.93;;;5.50;;
9445;SDS011;4761;49.490;10.908;2024-01-30T11:13:54;6.03;;;4.90;;
9445;SDS011;4761;49.490;10.908;2024-01-30T11:16:19;6.97;;;5.17;;
9445;SDS011;4761;49.490;10.908;2024-01-30T11:18:49;7.67;;;5.00;;
9445;SDS011;4761;49.490;10.908;2024-01-30T11:21:16;5.73;;;4.97;;
9445;SDS011;4761;49.490;10.908;2024-01-30T11:23:42;6.77;;;5.17;;
9445;SDS011;4761;49.490;10.908;2024-01-30T11:26:09;6.20;;;4.73;;
9445;SDS011;4761;49.490;10.908;2024-01-30T11:28:36;6.27;;;4.70;;
9445;SDS011;4761;49.490;10.908;2024-01-30T11:31:06;7.25;;;5.35;;
9445;SDS011;4761;49.490;10.908;2024-01-30T11:33:32;6.60;;;5.10;;
9445;SDS011;4761;49.490;10.908;2024-01-30T11:35:58;6.33;;;5.37;;
9445;SDS011;4761;49.490;10.908;2024-01-30T11:38:25;5.70;;;5.07;;
9445;SDS011;4761;49.490;10.908;2024-01-30T11:40:54;5.57;;;4.70;;
9445;SDS011;4761;49.490;10.908;2024-01-30T11:43:23;6.70;;;5.17;;
9445;SDS011;4761;49.490;10.908;2024-01-30T11:45:49;5.60;;;5.00;;
9445;SDS011;4761;49.490;10.908;2024-01-30T11:48:15;6.53;;;4.77;;
9445;SDS011;4761;49.490;10.908;2024-01-30T11:50:40;6.50;;;5.40;;
9445;SDS011;4761;49.490;10.908;2024-01-30T11:53:06;6.47;;;5.20;;
9445;SDS011;4761;49.490;10.908;2024-01-30T11:55:32;7.03;;;4.97;;
9445;SDS011;4761;49.490;10.908;2024-01-30T11:57:59;7.03;;;5.23;;
9445;SDS011;4761;49.490;10.908;2024-01-30T12:00:25;6.63;;;5.00;;
9445;SDS011;4761;49.490;10.908;2024-01-30T12:02:53;6.50;;;5.33;;
9445;SDS011;4761;49.490;10.908;2024-01-30T12:05:23;6.30;;;5.27;;
9445;SDS011;4761;49.490;10.908;2024-01-30T12:07:50;6.17;;;5.20;;
9445;SDS011;4761;49.490;10.908;2024-01-30T12:10:15;5.90;;;5.17;;
9445;SDS011;4761;49.490;10.908;2024-01-30T12:12:43;6.87;;;5.30;;
9445;SDS011;4761;49.490;10.908;2024-01-30T12:15:13;6.30;;;5.17;;
9445;SDS011;4761;49.490;10.908;2024-01-30T12:17:39;6.60;;;5.07;;
9445;SDS011;4761;49.490;10.908;2024-01-30T12:20:12;7.33;;;4.70;;
9445;SDS011;4761;49.490;10.908;2024-01-30T12:22:40;5.40;;;4.90;;
9445;SDS011;4761;49.490;10.908;2024-01-30T12:25:11;5.97;;;4.87;;
9445;SDS011;4761;49.490;10.908;2024-01-30T12:27:42;5.80;;;4.60;;
9445;SDS011;4761;49.490;10.908;2024-01-30T12:30:09;6.47;;;5.23;;
9445;SDS011;4761;49.490;10.908;2024-01-30T12:32:39;4.90;;;4.40;;
9445;SDS011;4761;49.490;10.908;2024-01-30T12:35:13;6.15;;;5.15;;
9445;SDS011;4761;49.490;10.908;2024-01-30T12:37:40;6.25;;;5.03;;
9445;SDS011;4761;49.490;10.908;2024-01-30T12:40:09;5.83;;;4.90;;
9445;SDS011;4761;49.490;10.908;2024-01-30T12:42:36;6.00;;;4.53;;
9445;SDS011;4761;49.490;10.908;2024-01-30T12:45:02;6.67;;;5.17;;
9445;SDS011;4761;49.490;10.908;2024-01-30T12:47:29;7.67;;;5.50;;
9445;SDS011;4761;49.490;10.908;2024-01-30T12:49:55;6.20;;;5.10;;
9445;SDS011;4761;49.490;10.908;2024-01-30T12:52:20;6.13;;;4.93;;
9445;SDS011;4761;49.490;10.908;2024-01-30T12:54:47;7.07;;;5.47;;
9445;SDS011;4761;49.490;10.908;2024-01-30T12:57:13;6.10;;;5.23;;
9445;SDS011;4761;49.490;10.908;2024-01-30T12:59:38;6.43;;;5.20;;
9445;SDS011;4761;49.490;10.908;2024-01-30T13:02:04;8.83;;;6.03;;
9445;SDS011;4761;49.490;10.908;2024-01-30T13:04:30;7.07;;;5.50;;
9445;SDS011;4761;49.490;10.908;2024-01-30T13:06:56;6.33;;;5.37;;
9445;SDS011;4761;49.490;10.908;2024-01-30T13:09:23;7.30;;;5.70;;
9445;SDS011;4761;49.490;10.908;2024-01-30T13:11:48;7.60;;;5.73;;
9445;SDS011;4761;49.490;10.908;2024-01-30T13:14:14;6.78;;;5.45;;
9445;SDS011;4761;49.490;10.908;2024-01-30T13:16:40;6.60;;;5.17;;
9445;SDS011;4761;49.490;10.908;2024-01-30T13:19:05;6.77;;;5.37;;
9445;SDS011;4761;49.490;10.908;2024-01-30T13:21:31;5.70;;;4.87;;
9445;SDS011;4761;49.490;10.908;2024-01-30T13:23:57;7.83;;;5.40;;
9445;SDS011;4761;49.490;10.908;2024-01-30T13:26:22;6.43;;;5.43;;
9445;SDS011;4761;49.490;10.908;2024-01-30T13:28:48;7.63;;;5.53;;
9445;SDS011;4761;49.490;10.908;2024-01-30T13:31:14;6.97;;;5.20;;
9445;SDS011;4761;49.490;10.908;2024-01-30T13:33:40;6.83;;;5.40;;
9445;SDS011;4761;49.490;10.908;2024-01-30T13:36:06;7.00;;;5.23;;
9445;SDS011;4761;49.490;10.908;2024-01-30T13:38:32;6.80;;;5.25;;
9445;SDS011;4761;49.490;10.908;2024-01-30T13:40:58;7.10;;;5.27;;
9445;SDS011;4761;49.490;10.908;2024-01-30T13:43:24;8.67;;;5.63;;
9445;SDS011;4761;49.490;10.908;2024-01-30T13:45:49;5.50;;;4.77;;
9445;SDS011;4761;49.490;10.908;2024-01-30T13:48:15;6.37;;;5.23;;
9445;SDS011;4761;49.490;10.908;2024-01-30T13:50:41;5.67;;;4.70;;
9445;SDS011;4761;49.490;10.908;2024-01-30T13:53:06;6.40;;;5.37;;
9445;SDS011;4761;49.490;10.908;2024-01-30T13:55:32;6.20;;;4.97;;
9445;SDS011;4761;49.490;10.908;2024-01-30T13:57:57;5.50;;;4.70;;
9445;SDS011;4761;49.490;10.908;2024-01-30T14:00:23;6.90;;;5.00;;
9445;SDS011;4761;49.490;10.908;2024-01-30T14:02:50;6.07;;;4.60;;
9445;SDS011;4761;49.490;10.908;2024-01-30T14:05:16;5.40;;;4.63;;
9445;SDS011;4761;49.490;10.908;2024-01-30T14:07:42;5.90;;;4.70;;
9445;SDS011;4761;49.490;10.908;2024-01-30T14:10:09;6.70;;;4.80;;
9445;SDS011;4761;49.490;10.908;2024-01-30T14:12:36;5.23;;;4.63;;
9445;SDS011;4761;49.490;10.908;2024-01-30T14:15:01;5.73;;;4.40;;
9445;SDS011;4761;49.490;10.908;2024-01-30T14:17:27;5.40;;;4.77;;
9445;SDS011;4761;49.490;10.908;2024-01-30T14:19:53;6.53;;;4.77;;
9445;SDS011;4761;49.490;10.908;2024-01-30T14:22:18;5.20;;;4.43;;
9445;SDS011;4761;49.490;10.908;2024-01-30T14:24:44;5.87;;;4.60;;
9445;SDS011;4761;49.490;10.908;2024-01-30T14:27:09;7.37;;;4.90;;
9445;SDS011;4761;49.490;10.908;2024-01-30T14:29:35;4.73;;;4.13;;
9445;SDS011;4761;49.490;10.908;2024-01-30T14:32:01;5.23;;;4.30;;
9445;SDS011;4761;49.490;10.908;2024-01-30T14:34:27;5.67;;;4.67;;
9445;SDS011;4761;49.490;10.908;2024-01-30T14:36:52;6.40;;;4.73;;
9445;SDS011;4761;49.490;10.908;2024-01-30T14:39:18;5.37;;;4.40;;
9445;SDS011;4761;49.490;10.908;2024-01-30T14:41:44;6.03;;;4.73;;
9445;SDS011;4761;49.490;10.908;2024-01-30T14:44:09;4.87;;;4.37;;
9445;SDS011;4761;49.490;10.908;2024-01-30T14:46:35;6.10;;;4.67;;
9445;SDS011;4761;49.490;10.908;2024-01-30T14:49:02;6.30;;;4.97;;
9445;SDS011;4761;49.490;10.908;2024-01-30T14:51:30;5.73;;;4.37;;
9445;SDS011;4761;49.490;10.908;2024-01-30T14:53:56;6.00;;;5.00;;